Time,TemperatureF,DewpointF,PressureIn,WindDirection,WindDirectionDegrees,WindSpeedMPH,WindSpeedGustMPH,Humidity,HourlyPrecipIn,Conditions,Clouds,dailyrainin,SoftwareType,DateUTC
2013-04-30 00:01:00,46.6,39.4,30.31,SW,236,0.0,0.0,76,0.00,,,0.00,meteohub,2013-04-30 04:01:00,
2013-04-30 00:02:00,46.0,39.2,30.31,SW,236,0.0,0.0,77,0.00,,,0.00,meteohub,2013-04-30 04:02:00,
2013-04-30 00:07:00,45.0,38.5,30.31,SW,236,0.0,0.0,78,0.00,,,0.00,meteohub,2013-04-30 04:07:00,
2013-04-30 00:12:00,44.8,38.7,30.31,SW,236,0.0,0.0,79,0.00,,,0.00,meteohub,2013-04-30 04:12:00,
2013-04-30 00:17:00,45.0,38.5,30.31,SW,236,0.0,0.0,78,0.00,,,0.00,meteohub,2013-04-30 04:17:00,
2013-04-30 00:22:00,44.6,38.5,30.31,SW,236,1.0,0.0,79,0.00,,,0.00,meteohub,2013-04-30 04:22:00,
2013-04-30 00:27:00,44.6,38.8,30.31,West,269,1.0,1.0,80,0.00,,,0.00,meteohub,2013-04-30 04:27:00,
2013-04-30 00:32:00,44.2,38.5,30.31,West,272,1.0,1.0,80,0.00,,,0.00,meteohub,2013-04-30 04:32:00,
2013-04-30 00:37:00,43.9,38.5,30.30,West,272,0.0,1.0,81,0.00,,,0.00,meteohub,2013-04-30 04:37:00,
2013-04-30 00:42:00,43.9,38.1,30.30,West,272,0.0,1.0,80,0.00,,,0.00,meteohub,2013-04-30 04:42:00,
2013-04-30 00:47:00,43.9,38.1,30.31,West,272,0.0,1.0,80,0.00,,,0.00,meteohub,2013-04-30 04:47:00,
2013-04-30 00:52:00,43.2,37.8,30.30,West,272,0.0,1.0,81,0.00,,,0.00,meteohub,2013-04-30 04:52:00,
2013-04-30 00:57:00,43.2,38.1,30.31,West,272,0.0,1.0,82,0.00,,,0.00,meteohub,2013-04-30 04:57:00,
2013-04-30 01:02:00,43.7,38.5,30.31,NNW,333,0.0,1.0,82,0.00,,,0.00,meteohub,2013-04-30 05:02:00,
2013-04-30 01:07:00,43.0,37.6,30.30,NNW,333,0.0,2.0,81,0.00,,,0.00,meteohub,2013-04-30 05:07:00,
2013-04-30 01:12:00,41.7,37.6,30.30,NNW,333,0.0,2.0,85,0.00,,,0.00,meteohub,2013-04-30 05:12:00,
2013-04-30 01:17:00,41.5,37.6,30.30,NNW,333,0.0,1.0,86,0.00,,,0.00,meteohub,2013-04-30 05:17:00,
2013-04-30 01:22:00,41.5,37.4,30.30,NNW,333,0.0,0.0,85,0.00,,,0.00,meteohub,2013-04-30 05:22:00,
2013-04-30 01:27:00,42.3,38.1,30.30,NNW,333,0.0,0.0,85,0.00,,,0.00,meteohub,2013-04-30 05:27:00,
2013-04-30 01:32:00,42.4,38.3,30.30,NNW,333,0.0,0.0,85,0.00,,,0.00,meteohub,2013-04-30 05:32:00,
2013-04-30 01:37:00,42.1,38.1,30.30,NNW,333,0.0,0.0,86,0.00,,,0.00,meteohub,2013-04-30 05:37:00,
2013-04-30 01:42:00,42.1,38.1,30.30,NNW,333,0.0,0.0,86,0.00,,,0.00,meteohub,2013-04-30 05:42:00,
2013-04-30 01:47:00,42.4,38.5,30.30,NNW,333,0.0,1.0,86,0.00,,,0.00,meteohub,2013-04-30 05:47:00,
2013-04-30 01:52:00,42.3,38.3,30.30,NNW,333,0.0,1.0,86,0.00,,,0.00,meteohub,2013-04-30 05:52:00,
2013-04-30 01:57:00,42.3,38.3,30.31,NNW,333,0.0,1.0,86,0.00,,,0.00,meteohub,2013-04-30 05:57:00,
2013-04-30 02:02:00,42.3,38.7,30.30,NNW,333,0.0,1.0,87,0.00,,,0.00,meteohub,2013-04-30 06:02:00,
2013-04-30 02:07:00,42.1,38.5,30.30,NNW,333,0.0,1.0,87,0.00,,,0.00,meteohub,2013-04-30 06:07:00,
2013-04-30 02:12:00,41.9,38.3,30.30,NNW,333,0.0,1.0,87,0.00,,,0.00,meteohub,2013-04-30 06:12:00,
2013-04-30 02:17:00,42.4,38.5,30.30,NNW,333,1.0,1.0,86,0.00,,,0.00,meteohub,2013-04-30 06:17:00,
2013-04-30 02:22:00,43.0,39.0,30.30,NNW,333,0.0,1.0,86,0.00,,,0.00,meteohub,2013-04-30 06:22:00,
2013-04-30 02:27:00,43.0,39.0,30.30,NNW,333,0.0,2.0,86,0.00,,,0.00,meteohub,2013-04-30 06:27:00,
2013-04-30 02:32:00,42.6,38.7,30.30,NNW,333,0.0,2.0,86,0.00,,,0.00,meteohub,2013-04-30 06:32:00,
2013-04-30 02:37:00,42.4,38.5,30.30,NNW,333,0.0,1.0,86,0.00,,,0.00,meteohub,2013-04-30 06:37:00,
2013-04-30 02:42:00,42.3,39.0,30.30,NNW,333,0.0,1.0,88,0.00,,,0.00,meteohub,2013-04-30 06:42:00,
2013-04-30 02:47:00,42.6,39.0,30.30,North,351,1.0,1.0,87,0.00,,,0.00,meteohub,2013-04-30 06:47:00,
2013-04-30 02:52:00,43.0,39.4,30.30,North,351,0.0,2.0,87,0.00,,,0.00,meteohub,2013-04-30 06:52:00,
2013-04-30 02:57:00,43.3,39.4,30.30,North,351,0.0,2.0,86,0.00,,,0.00,meteohub,2013-04-30 06:57:00,
2013-04-30 03:02:00,43.5,39.6,30.30,North,351,0.0,2.0,86,0.00,,,0.00,meteohub,2013-04-30 07:02:00,
2013-04-30 03:07:00,43.2,39.2,30.30,North,351,0.0,1.0,86,0.00,,,0.00,meteohub,2013-04-30 07:07:00,
2013-04-30 03:12:00,43.0,39.4,30.30,North,351,0.0,1.0,87,0.00,,,0.00,meteohub,2013-04-30 07:12:00,
2013-04-30 03:17:00,42.8,39.2,30.30,North,351,0.0,1.0,87,0.00,,,0.00,meteohub,2013-04-30 07:17:00,
2013-04-30 03:22:00,42.8,39.6,30.30,North,351,0.0,1.0,88,0.00,,,0.00,meteohub,2013-04-30 07:22:00,
2013-04-30 03:27:00,43.0,39.7,30.30,North,351,0.0,0.0,88,0.00,,,0.00,meteohub,2013-04-30 07:27:00,
2013-04-30 03:32:00,43.0,39.7,30.30,North,351,0.0,0.0,88,0.00,,,0.00,meteohub,2013-04-30 07:32:00,
2013-04-30 03:37:00,43.0,39.7,30.31,North,351,0.0,0.0,88,0.00,,,0.00,meteohub,2013-04-30 07:37:00,
2013-04-30 03:42:00,43.0,39.7,30.31,North,351,0.0,0.0,88,0.00,,,0.00,meteohub,2013-04-30 07:42:00,
2013-04-30 03:47:00,43.2,39.6,30.31,North,351,0.0,1.0,87,0.00,,,0.00,meteohub,2013-04-30 07:47:00,
2013-04-30 03:52:00,43.0,39.4,30.31,North,351,0.0,1.0,87,0.00,,,0.00,meteohub,2013-04-30 07:52:00,
2013-04-30 03:57:00,43.2,39.2,30.31,NNW,347,0.0,1.0,86,0.00,,,0.00,meteohub,2013-04-30 07:57:00,
2013-04-30 04:02:00,43.0,39.0,30.31,NW,319,0.0,2.0,86,0.00,,,0.00,meteohub,2013-04-30 08:02:00,
2013-04-30 04:07:00,42.4,38.8,30.31,NW,319,0.0,2.0,87,0.00,,,0.00,meteohub,2013-04-30 08:07:00,
2013-04-30 04:12:00,42.3,39.0,30.31,NNW,345,0.0,2.0,88,0.00,,,0.00,meteohub,2013-04-30 08:12:00,
2013-04-30 04:17:00,41.7,38.5,30.31,NNW,345,0.0,2.0,88,0.00,,,0.00,meteohub,2013-04-30 08:17:00,
2013-04-30 04:22:00,41.7,38.7,30.31,NNW,345,0.0,2.0,89,0.00,,,0.00,meteohub,2013-04-30 08:22:00,
2013-04-30 04:27:00,41.7,38.7,30.31,NNW,345,0.0,2.0,89,0.00,,,0.00,meteohub,2013-04-30 08:27:00,
2013-04-30 04:32:00,41.5,38.5,30.32,NNW,345,0.0,1.0,89,0.00,,,0.00,meteohub,2013-04-30 08:32:00,
2013-04-30 04:37:00,41.5,38.5,30.31,NNW,345,0.0,1.0,89,0.00,,,0.00,meteohub,2013-04-30 08:37:00,
2013-04-30 04:42:00,41.4,38.3,30.32,NNW,345,0.0,1.0,89,0.00,,,0.00,meteohub,2013-04-30 08:42:00,
2013-04-30 04:47:00,40.6,37.6,30.32,NNW,345,0.0,1.0,89,0.00,,,0.00,meteohub,2013-04-30 08:47:00,
2013-04-30 04:52:00,40.3,37.6,30.31,NNW,345,0.0,1.0,90,0.00,,,0.00,meteohub,2013-04-30 08:52:00,
2013-04-30 04:57:00,40.3,37.9,30.32,NNW,345,0.0,1.0,91,0.00,,,0.00,meteohub,2013-04-30 08:57:00,
2013-04-30 05:02:00,40.6,38.3,30.32,NNW,345,0.0,1.0,91,0.00,,,0.00,meteohub,2013-04-30 09:02:00,
2013-04-30 05:07:00,40.6,38.3,30.32,NNW,345,0.0,1.0,91,0.00,,,0.00,meteohub,2013-04-30 09:07:00,
2013-04-30 05:12:00,40.8,38.5,30.32,NNW,345,0.0,1.0,91,0.00,,,0.00,meteohub,2013-04-30 09:12:00,
2013-04-30 05:17:00,40.8,38.5,30.32,NNW,345,0.0,1.0,91,0.00,,,0.00,meteohub,2013-04-30 09:17:00,
2013-04-30 05:22:00,41.0,38.7,30.32,NNW,345,0.0,1.0,91,0.00,,,0.00,meteohub,2013-04-30 09:22:00,
2013-04-30 05:27:00,41.0,38.7,30.32,NNW,345,0.0,1.0,91,0.00,,,0.00,meteohub,2013-04-30 09:27:00,
2013-04-30 05:32:00,41.2,38.5,30.32,NNW,345,1.0,1.0,90,0.00,,,0.00,meteohub,2013-04-30 09:32:00,
2013-04-30 05:37:00,41.0,38.3,30.33,NNW,345,0.0,1.0,90,0.00,,,0.00,meteohub,2013-04-30 09:37:00,
2013-04-30 05:42:00,40.6,38.3,30.33,NNW,345,0.0,1.0,91,0.00,,,0.00,meteohub,2013-04-30 09:42:00,
2013-04-30 05:47:00,40.6,38.3,30.33,NNW,345,0.0,1.0,91,0.00,,,0.00,meteohub,2013-04-30 09:47:00,
2013-04-30 05:52:00,40.5,38.1,30.33,NNW,345,1.0,1.0,91,0.00,,,0.00,meteohub,2013-04-30 09:52:00,
2013-04-30 05:57:00,40.5,38.1,30.33,NNW,345,0.0,1.0,91,0.00,,,0.00,meteohub,2013-04-30 09:57:00,
2013-04-30 06:02:00,40.8,38.5,30.33,NNW,332,1.0,1.0,91,0.00,,,0.00,meteohub,2013-04-30 10:02:00,
2013-04-30 06:07:00,41.0,38.3,30.34,North,5,0.0,2.0,90,0.00,,,0.00,meteohub,2013-04-30 10:07:00,
2013-04-30 06:12:00,40.6,37.9,30.34,North,5,1.0,2.0,90,0.00,,,0.00,meteohub,2013-04-30 10:12:00,
2013-04-30 06:17:00,40.3,37.9,30.34,North,5,0.0,2.0,91,0.00,,,0.00,meteohub,2013-04-30 10:17:00,
2013-04-30 06:22:00,39.7,37.4,30.34,North,5,0.0,2.0,91,0.00,,,0.00,meteohub,2013-04-30 10:22:00,
2013-04-30 06:27:00,39.9,37.6,30.34,North,5,0.0,1.0,91,0.00,,,0.00,meteohub,2013-04-30 10:27:00,
2013-04-30 06:32:00,40.1,37.8,30.34,North,5,0.0,1.0,91,0.00,,,0.00,meteohub,2013-04-30 10:32:00,
2013-04-30 06:37:00,39.9,37.6,30.34,North,5,0.0,1.0,91,0.00,,,0.00,meteohub,2013-04-30 10:37:00,
2013-04-30 06:42:00,40.3,37.9,30.35,North,5,1.0,2.0,91,0.00,,,0.00,meteohub,2013-04-30 10:42:00,
2013-04-30 06:47:00,40.6,38.3,30.35,NW,324,0.0,2.0,91,0.00,,,0.00,meteohub,2013-04-30 10:47:00,
2013-04-30 06:52:00,40.6,38.3,30.35,NW,324,0.0,2.0,91,0.00,,,0.00,meteohub,2013-04-30 10:52:00,
2013-04-30 06:57:00,40.5,38.1,30.35,NW,324,0.0,2.0,91,0.00,,,0.00,meteohub,2013-04-30 10:57:00,
2013-04-30 07:02:00,40.5,38.1,30.35,NW,324,0.0,2.0,91,0.00,,,0.00,meteohub,2013-04-30 11:02:00,
2013-04-30 07:07:00,40.5,38.1,30.35,NW,324,1.0,1.0,91,0.00,,,0.00,meteohub,2013-04-30 11:07:00,
2013-04-30 07:12:00,40.5,38.1,30.35,NW,324,1.0,2.0,91,0.00,,,0.00,meteohub,2013-04-30 11:12:00,
2013-04-30 07:17:00,40.8,38.5,30.35,NW,324,0.0,2.0,91,0.00,,,0.00,meteohub,2013-04-30 11:17:00,
2013-04-30 07:22:00,41.2,39.0,30.36,NW,324,0.0,2.0,92,0.00,,,0.00,meteohub,2013-04-30 11:22:00,
2013-04-30 07:27:00,41.5,39.4,30.36,NW,324,0.0,2.0,92,0.00,,,0.00,meteohub,2013-04-30 11:27:00,
2013-04-30 07:32:00,42.1,39.6,30.36,NW,324,1.0,1.0,91,0.00,,,0.00,meteohub,2013-04-30 11:32:00,
2013-04-30 07:37:00,42.4,39.7,30.36,NW,324,0.0,1.0,90,0.00,,,0.00,meteohub,2013-04-30 11:37:00,
2013-04-30 07:42:00,43.0,39.9,30.36,NW,324,0.0,1.0,89,0.00,,,0.00,meteohub,2013-04-30 11:42:00,
2013-04-30 07:47:00,43.2,40.1,30.36,NW,324,0.0,1.0,89,0.00,,,0.00,meteohub,2013-04-30 11:47:00,
2013-04-30 07:52:00,43.5,40.5,30.37,NW,324,1.0,1.0,89,0.00,,,0.00,meteohub,2013-04-30 11:52:00,
2013-04-30 07:57:00,43.9,40.8,30.36,NW,324,1.0,1.0,89,0.00,,,0.00,meteohub,2013-04-30 11:57:00,
2013-04-30 08:02:00,44.2,41.2,30.37,NW,324,0.0,1.0,89,0.00,,,0.00,meteohub,2013-04-30 12:02:00,
2013-04-30 08:07:00,45.0,41.4,30.37,NW,324,1.0,1.0,87,0.00,,,0.00,meteohub,2013-04-30 12:07:00,
2013-04-30 08:12:00,45.5,41.5,30.37,North,355,0.0,1.0,86,0.00,,,0.00,meteohub,2013-04-30 12:12:00,
2013-04-30 08:17:00,46.2,41.9,30.37,North,355,0.0,1.0,85,0.00,,,0.00,meteohub,2013-04-30 12:17:00,
2013-04-30 08:22:00,46.9,42.4,30.38,North,355,0.0,1.0,84,0.00,,,0.00,meteohub,2013-04-30 12:22:00,
2013-04-30 08:27:00,48.0,42.8,30.38,North,355,0.0,1.0,82,0.00,,,0.00,meteohub,2013-04-30 12:27:00,
2013-04-30 08:32:00,49.3,43.0,30.38,WSW,248,0.0,2.0,79,0.00,,,0.00,meteohub,2013-04-30 12:32:00,
2013-04-30 08:37:00,50.4,42.4,30.38,WSW,248,0.0,2.0,74,0.00,,,0.00,meteohub,2013-04-30 12:37:00,
2013-04-30 08:42:00,50.7,41.4,30.38,WSW,248,0.0,2.0,70,0.00,,,0.00,meteohub,2013-04-30 12:42:00,
2013-04-30 08:47:00,51.4,39.2,30.38,NW,304,1.0,2.0,63,0.00,,,0.00,meteohub,2013-04-30 12:47:00,
2013-04-30 08:52:00,51.6,41.4,30.38,WNW,300,1.0,2.0,68,0.00,,,0.00,meteohub,2013-04-30 12:52:00,
2013-04-30 08:57:00,52.2,43.0,30.38,WNW,300,0.0,2.0,71,0.00,,,0.00,meteohub,2013-04-30 12:57:00,
2013-04-30 09:02:00,52.2,41.5,30.38,WNW,289,0.0,2.0,67,0.00,,,0.00,meteohub,2013-04-30 13:02:00,
2013-04-30 09:07:00,52.5,41.5,30.38,NE,55,2.0,2.0,66,0.00,,,0.00,meteohub,2013-04-30 13:07:00,
2013-04-30 09:12:00,52.3,39.4,30.38,NNW,343,0.0,3.0,61,0.00,,,0.00,meteohub,2013-04-30 13:12:00,
2013-04-30 09:17:00,53.1,39.2,30.38,NNW,340,1.0,3.0,59,0.00,,,0.00,meteohub,2013-04-30 13:17:00,
2013-04-30 09:22:00,53.2,36.1,30.38,NNE,21,0.0,4.0,52,0.00,,,0.00,meteohub,2013-04-30 13:22:00,
2013-04-30 09:27:00,54.0,38.7,30.38,NE,51,2.0,4.0,56,0.00,,,0.00,meteohub,2013-04-30 13:27:00,
2013-04-30 09:32:00,54.5,40.8,30.38,WSW,250,2.0,4.0,60,0.00,,,0.00,meteohub,2013-04-30 13:32:00,
2013-04-30 09:37:00,55.6,37.2,30.38,North,11,2.0,4.0,50,0.00,,,0.00,meteohub,2013-04-30 13:37:00,
2013-04-30 09:42:00,55.8,38.5,30.38,NE,51,3.0,4.0,52,0.00,,,0.00,meteohub,2013-04-30 13:42:00,
2013-04-30 09:47:00,56.5,38.7,30.38,NE,52,2.0,7.0,51,0.00,,,0.00,meteohub,2013-04-30 13:47:00,
2013-04-30 09:52:00,56.7,37.8,30.38,NE,42,3.0,7.0,49,0.00,,,0.00,meteohub,2013-04-30 13:52:00,
2013-04-30 09:57:00,56.5,36.5,30.38,NE,43,4.0,7.0,47,0.00,,,0.00,meteohub,2013-04-30 13:57:00,
2013-04-30 10:02:00,57.0,34.7,30.38,South,170,0.0,7.0,43,0.00,,,0.00,meteohub,2013-04-30 14:02:00,
2013-04-30 10:07:00,57.9,35.6,30.38,East,83,1.0,7.0,43,0.00,,,0.00,meteohub,2013-04-30 14:07:00,
2013-04-30 10:12:00,57.9,37.8,30.38,SW,234,2.0,7.0,47,0.00,,,0.00,meteohub,2013-04-30 14:12:00,
2013-04-30 10:17:00,59.5,36.5,30.38,NNE,17,2.0,7.0,42,0.00,,,0.00,meteohub,2013-04-30 14:17:00,
2013-04-30 10:22:00,59.7,39.4,30.38,SW,229,1.0,7.0,47,0.00,,,0.00,meteohub,2013-04-30 14:22:00,
2013-04-30 10:27:00,61.5,37.0,30.38,WSW,246,1.0,5.0,40,0.00,,,0.00,meteohub,2013-04-30 14:27:00,
2013-04-30 10:32:00,62.4,38.5,30.38,SW,226,0.0,5.0,41,0.00,,,0.00,meteohub,2013-04-30 14:32:00,
2013-04-30 10:37:00,62.2,38.8,30.38,NNW,335,1.0,3.0,42,0.00,,,0.00,meteohub,2013-04-30 14:37:00,
2013-04-30 10:42:00,62.2,32.7,30.38,West,280,1.0,4.0,33,0.00,,,0.00,meteohub,2013-04-30 14:42:00,
2013-04-30 10:47:00,62.8,38.1,30.38,NE,47,1.0,4.0,40,0.00,,,0.00,meteohub,2013-04-30 14:47:00,
2013-04-30 10:52:00,63.0,37.0,30.38,SW,229,0.0,4.0,38,0.00,,,0.00,meteohub,2013-04-30 14:52:00,
2013-04-30 10:57:00,64.8,38.5,30.38,WSW,244,2.0,4.0,38,0.00,,,0.00,meteohub,2013-04-30 14:57:00,
2013-04-30 11:02:00,63.9,44.8,30.38,West,261,1.0,4.0,50,0.00,,,0.00,meteohub,2013-04-30 15:02:00,
2013-04-30 11:07:00,64.8,35.1,30.38,West,263,2.0,3.0,33,0.00,,,0.00,meteohub,2013-04-30 15:07:00,
2013-04-30 11:12:00,65.5,39.2,30.38,WSW,254,1.0,3.0,38,0.00,,,0.00,meteohub,2013-04-30 15:12:00,
2013-04-30 11:17:00,65.8,36.0,30.38,SW,221,2.0,3.0,33,0.00,,,0.00,meteohub,2013-04-30 15:17:00,
2013-04-30 11:22:00,66.4,35.6,30.38,ENE,65,1.0,3.0,32,0.00,,,0.00,meteohub,2013-04-30 15:22:00,
2013-04-30 11:27:00,65.7,38.7,30.38,South,170,1.0,4.0,37,0.00,,,0.00,meteohub,2013-04-30 15:27:00,
2013-04-30 11:32:00,65.1,40.3,30.38,East,101,1.0,4.0,40,0.00,,,0.00,meteohub,2013-04-30 15:32:00,
2013-04-30 11:37:00,66.2,36.3,30.38,SW,225,3.0,4.0,33,0.00,,,0.00,meteohub,2013-04-30 15:37:00,
2013-04-30 11:42:00,66.7,41.7,30.38,SE,141,0.0,4.0,40,0.00,,,0.00,meteohub,2013-04-30 15:42:00,
2013-04-30 11:47:00,66.9,39.0,30.37,SW,236,1.0,4.0,36,0.00,,,0.00,meteohub,2013-04-30 15:47:00,
2013-04-30 11:52:00,67.6,39.7,30.37,West,262,2.0,3.0,36,0.00,,,0.00,meteohub,2013-04-30 15:52:00,
2013-04-30 11:57:00,68.2,38.7,30.37,WSW,253,3.0,4.0,34,0.00,,,0.00,meteohub,2013-04-30 15:57:00,
2013-04-30 12:02:00,65.5,37.8,30.37,WSW,252,3.0,4.0,36,0.00,,,0.00,meteohub,2013-04-30 16:02:00,
2013-04-30 12:07:00,66.7,39.6,30.37,ENE,57,4.0,4.0,37,0.00,,,0.00,meteohub,2013-04-30 16:07:00,
2013-04-30 12:12:00,67.6,42.4,30.37,SW,230,1.0,5.0,40,0.00,,,0.00,meteohub,2013-04-30 16:12:00,
2013-04-30 12:17:00,67.6,46.8,30.36,WSW,246,2.0,5.0,47,0.00,,,0.00,meteohub,2013-04-30 16:17:00,
2013-04-30 12:22:00,68.0,44.1,30.36,SW,224,2.0,5.0,42,0.00,,,0.00,meteohub,2013-04-30 16:22:00,
2013-04-30 12:27:00,67.8,36.9,30.37,WSW,238,3.0,4.0,32,0.00,,,0.00,meteohub,2013-04-30 16:27:00,
2013-04-30 12:32:00,69.1,38.8,30.36,East,86,1.0,4.0,33,0.00,,,0.00,meteohub,2013-04-30 16:32:00,
2013-04-30 12:37:00,68.5,42.6,30.36,West,261,1.0,3.0,39,0.00,,,0.00,meteohub,2013-04-30 16:37:00,
2013-04-30 12:42:00,67.6,41.7,30.36,West,263,2.0,3.0,39,0.00,,,0.00,meteohub,2013-04-30 16:42:00,
2013-04-30 12:47:00,69.4,37.4,30.36,WSW,242,2.0,4.0,31,0.00,,,0.00,meteohub,2013-04-30 16:47:00,
2013-04-30 12:52:00,68.4,36.5,30.36,SE,128,1.0,4.0,31,0.00,,,0.00,meteohub,2013-04-30 16:52:00,
2013-04-30 12:57:00,67.1,37.0,30.35,ENE,72,0.0,4.0,33,0.00,,,0.00,meteohub,2013-04-30 16:57:00,
2013-04-30 13:02:00,70.3,38.3,30.35,WSW,254,3.0,3.0,31,0.00,,,0.00,meteohub,2013-04-30 17:02:00,
2013-04-30 13:07:00,70.5,38.5,30.36,NE,54,2.0,4.0,31,0.00,,,0.00,meteohub,2013-04-30 17:07:00,
2013-04-30 13:12:00,69.6,41.5,30.35,ENE,71,1.0,4.0,36,0.00,,,0.00,meteohub,2013-04-30 17:12:00,
2013-04-30 13:17:00,68.4,43.2,30.35,South,185,1.0,4.0,40,0.00,,,0.00,meteohub,2013-04-30 17:17:00,
2013-04-30 13:22:00,69.4,37.4,30.35,SSE,148,2.0,4.0,31,0.00,,,0.00,meteohub,2013-04-30 17:22:00,
2013-04-30 13:27:00,70.3,43.5,30.35,SW,223,1.0,4.0,38,0.00,,,0.00,meteohub,2013-04-30 17:27:00,
2013-04-30 13:32:00,70.2,40.5,30.35,ENE,76,3.0,4.0,34,0.00,,,0.00,meteohub,2013-04-30 17:32:00,
2013-04-30 13:37:00,67.5,40.3,30.35,ENE,60,3.0,4.0,37,0.00,,,0.00,meteohub,2013-04-30 17:37:00,
2013-04-30 13:42:00,68.4,44.4,30.35,ENE,76,0.0,8.0,42,0.00,,,0.00,meteohub,2013-04-30 17:42:00,
2013-04-30 13:48:00,70.5,43.7,30.35,West,264,3.0,8.0,38,0.00,,,0.00,meteohub,2013-04-30 17:48:00,
2013-04-30 13:53:00,68.7,37.6,30.35,East,94,1.0,8.0,32,0.00,,,0.00,meteohub,2013-04-30 17:53:00,
2013-04-30 13:58:00,68.2,44.2,30.34,WSW,238,1.0,7.0,42,0.00,,,0.00,meteohub,2013-04-30 17:58:00,
2013-04-30 14:03:00,70.2,42.6,30.35,WSW,248,3.0,6.0,37,0.00,,,0.00,meteohub,2013-04-30 18:03:00,
2013-04-30 14:08:00,71.1,47.5,30.34,WSW,258,2.0,6.0,43,0.00,,,0.00,meteohub,2013-04-30 18:08:00,
2013-04-30 14:13:00,71.1,41.4,30.34,WSW,254,0.0,5.0,34,0.00,,,0.00,meteohub,2013-04-30 18:13:00,
2013-04-30 14:18:00,71.2,39.0,30.34,WSW,258,1.0,5.0,31,0.00,,,0.00,meteohub,2013-04-30 18:18:00,
2013-04-30 14:23:00,72.3,42.4,30.34,South,183,2.0,5.0,34,0.00,,,0.00,meteohub,2013-04-30 18:23:00,
2013-04-30 14:28:00,70.9,43.3,30.34,NE,55,4.0,4.0,37,0.00,,,0.00,meteohub,2013-04-30 18:28:00,
2013-04-30 14:33:00,71.2,43.7,30.34,ENE,65,1.0,7.0,37,0.00,,,0.00,meteohub,2013-04-30 18:33:00,
2013-04-30 14:38:00,70.5,39.2,30.34,SW,236,2.0,7.0,32,0.00,,,0.00,meteohub,2013-04-30 18:38:00,
2013-04-30 14:43:00,70.3,38.3,30.34,ENE,58,2.0,7.0,31,0.00,,,0.00,meteohub,2013-04-30 18:43:00,
2013-04-30 14:48:00,69.4,43.3,30.34,ESE,103,1.0,4.0,39,0.00,,,0.00,meteohub,2013-04-30 18:48:00,
2013-04-30 14:53:00,72.0,45.0,30.34,East,95,3.0,4.0,38,0.00,,,0.00,meteohub,2013-04-30 18:53:00,
2013-04-30 14:58:00,71.1,45.5,30.34,WSW,254,2.0,4.0,40,0.00,,,0.00,meteohub,2013-04-30 18:58:00,
2013-04-30 15:03:00,71.2,45.0,30.34,SSW,198,1.0,4.0,39,0.00,,,0.00,meteohub,2013-04-30 19:03:00,
2013-04-30 15:08:00,72.0,43.5,30.34,NE,49,2.0,4.0,36,0.00,,,0.00,meteohub,2013-04-30 19:08:00,
2013-04-30 15:13:00,71.2,41.4,30.33,WSW,249,2.0,4.0,34,0.00,,,0.00,meteohub,2013-04-30 19:13:00,
2013-04-30 15:18:00,72.5,42.6,30.33,SSW,209,2.0,3.0,34,0.00,,,0.00,meteohub,2013-04-30 19:18:00,
2013-04-30 15:23:00,73.0,44.4,30.34,WSW,237,1.0,4.0,36,0.00,,,0.00,meteohub,2013-04-30 19:23:00,
2013-04-30 15:28:00,72.1,38.1,30.33,SSW,198,2.0,4.0,29,0.00,,,0.00,meteohub,2013-04-30 19:28:00,
2013-04-30 15:33:00,71.8,38.7,30.33,ESE,107,1.0,4.0,30,0.00,,,0.00,meteohub,2013-04-30 19:33:00,
2013-04-30 15:38:00,69.1,40.3,30.34,East,85,2.0,4.0,35,0.00,,,0.00,meteohub,2013-04-30 19:38:00,
2013-04-30 15:43:00,70.9,40.3,30.34,WSW,254,3.0,5.0,33,0.00,,,0.00,meteohub,2013-04-30 19:43:00,
2013-04-30 15:48:00,71.1,44.8,30.34,NE,44,3.0,6.0,39,0.00,,,0.00,meteohub,2013-04-30 19:48:00,
2013-04-30 15:53:00,70.0,40.3,30.33,West,259,1.0,6.0,34,0.00,,,0.00,meteohub,2013-04-30 19:53:00,
2013-04-30 15:58:00,70.5,36.7,30.33,North,5,1.0,5.0,29,0.00,,,0.00,meteohub,2013-04-30 19:58:00,
2013-04-30 16:03:00,71.4,42.3,30.33,ENE,57,5.0,5.0,35,0.00,,,0.00,meteohub,2013-04-30 20:03:00,
2013-04-30 16:08:00,71.1,38.8,30.33,WSW,238,2.0,5.0,31,0.00,,,0.00,meteohub,2013-04-30 20:08:00,
2013-04-30 16:13:00,71.4,40.1,30.34,SW,236,2.0,5.0,32,0.00,,,0.00,meteohub,2013-04-30 20:13:00,
2013-04-30 16:18:00,71.2,39.9,30.34,ESE,112,1.0,5.0,32,0.00,,,0.00,meteohub,2013-04-30 20:18:00,
2013-04-30 16:23:00,71.4,40.8,30.34,South,178,2.0,4.0,33,0.00,,,0.00,meteohub,2013-04-30 20:23:00,
2013-04-30 16:28:00,70.5,37.6,30.34,WSW,254,2.0,4.0,30,0.00,,,0.00,meteohub,2013-04-30 20:28:00,
2013-04-30 16:33:00,71.2,38.3,30.34,WSW,258,1.0,5.0,30,0.00,,,0.00,meteohub,2013-04-30 20:33:00,
2013-04-30 16:38:00,71.4,44.4,30.33,SSW,209,0.0,5.0,38,0.00,,,0.00,meteohub,2013-04-30 20:38:00,
2013-04-30 16:43:00,70.9,40.3,30.33,SW,215,0.0,5.0,33,0.00,,,0.00,meteohub,2013-04-30 20:43:00,
2013-04-30 16:48:00,70.9,38.7,30.33,SW,225,2.0,4.0,31,0.00,,,0.00,meteohub,2013-04-30 20:48:00,
2013-04-30 16:53:00,71.1,38.1,30.34,WSW,250,3.0,4.0,30,0.00,,,0.00,meteohub,2013-04-30 20:53:00,
2013-04-30 16:58:00,69.8,34.3,30.34,South,181,0.0,4.0,27,0.00,,,0.00,meteohub,2013-04-30 20:58:00,
2013-04-30 17:03:00,70.2,38.8,30.34,SW,227,2.0,4.0,32,0.00,,,0.00,meteohub,2013-04-30 21:03:00,
2013-04-30 17:08:00,70.0,34.5,30.34,WSW,238,1.0,3.0,27,0.00,,,0.00,meteohub,2013-04-30 21:08:00,
2013-04-30 17:13:00,70.3,42.8,30.34,SSW,209,1.0,3.0,37,0.00,,,0.00,meteohub,2013-04-30 21:13:00,
2013-04-30 17:18:00,70.2,37.2,30.34,SW,234,2.0,3.0,30,0.00,,,0.00,meteohub,2013-04-30 21:18:00,
2013-04-30 17:23:00,69.1,34.5,30.34,SW,229,2.0,3.0,28,0.00,,,0.00,meteohub,2013-04-30 21:23:00,
2013-04-30 17:28:00,68.4,34.0,30.34,WSW,246,2.0,3.0,28,0.00,,,0.00,meteohub,2013-04-30 21:28:00,
2013-04-30 17:33:00,67.6,34.2,30.35,WSW,244,2.0,3.0,29,0.00,,,0.00,meteohub,2013-04-30 21:33:00,
2013-04-30 17:38:00,67.5,34.2,30.34,WSW,250,1.0,4.0,29,0.00,,,0.00,meteohub,2013-04-30 21:38:00,
2013-04-30 17:43:00,67.5,38.8,30.34,SW,222,2.0,4.0,35,0.00,,,0.00,meteohub,2013-04-30 21:43:00,
2013-04-30 17:48:00,66.7,32.5,30.35,WSW,238,1.0,4.0,28,0.00,,,0.00,meteohub,2013-04-30 21:48:00,
2013-04-30 17:53:00,66.4,34.0,30.35,SW,236,2.0,3.0,30,0.00,,,0.00,meteohub,2013-04-30 21:53:00,
2013-04-30 17:58:00,65.7,35.1,30.35,SW,226,1.0,3.0,32,0.00,,,0.00,meteohub,2013-04-30 21:58:00,
2013-04-30 18:03:00,65.5,35.6,30.35,SSW,210,0.0,3.0,33,0.00,,,0.00,meteohub,2013-04-30 22:03:00,
2013-04-30 18:08:00,65.1,33.8,30.35,SW,214,2.0,3.0,31,0.00,,,0.00,meteohub,2013-04-30 22:08:00,
2013-04-30 18:13:00,64.8,33.4,30.35,SW,225,2.0,3.0,31,0.00,,,0.00,meteohub,2013-04-30 22:13:00,
2013-04-30 18:18:00,64.0,32.7,30.35,SW,223,1.0,3.0,31,0.00,,,0.00,meteohub,2013-04-30 22:18:00,
2013-04-30 18:24:00,63.7,34.0,30.35,SW,235,1.0,3.0,33,0.00,,,0.00,meteohub,2013-04-30 22:24:00,
2013-04-30 18:29:00,63.3,31.3,30.35,WSW,240,1.0,3.0,30,0.00,,,0.00,meteohub,2013-04-30 22:29:00,
2013-04-30 18:34:00,62.8,35.4,30.35,SW,227,1.0,3.0,36,0.00,,,0.00,meteohub,2013-04-30 22:34:00,
2013-04-30 18:39:00,62.4,32.2,30.35,SW,223,1.0,3.0,32,0.00,,,0.00,meteohub,2013-04-30 22:39:00,
2013-04-30 18:44:00,62.2,32.7,30.35,SW,229,0.0,3.0,33,0.00,,,0.00,meteohub,2013-04-30 22:44:00,
2013-04-30 18:49:00,61.7,33.8,30.35,SW,229,0.0,2.0,35,0.00,,,0.00,meteohub,2013-04-30 22:49:00,
2013-04-30 18:54:00,61.2,32.5,30.35,SW,227,1.0,2.0,34,0.00,,,0.00,meteohub,2013-04-30 22:54:00,
2013-04-30 18:59:00,60.8,32.9,30.36,SW,217,2.0,2.0,35,0.00,,,0.00,meteohub,2013-04-30 22:59:00,
2013-04-30 19:04:00,60.3,31.1,30.35,SSW,195,2.0,3.0,33,0.00,,,0.00,meteohub,2013-04-30 23:04:00,
2013-04-30 19:09:00,59.7,30.6,30.35,SW,226,0.0,4.0,33,0.00,,,0.00,meteohub,2013-04-30 23:09:00,
2013-04-30 19:14:00,58.8,33.3,30.36,SW,226,0.0,4.0,38,0.00,,,0.00,meteohub,2013-04-30 23:14:00,
2013-04-30 19:19:00,57.7,32.4,30.36,SW,226,0.0,3.0,38,0.00,,,0.00,meteohub,2013-04-30 23:19:00,
2013-04-30 19:24:00,57.0,30.9,30.36,WSW,239,2.0,2.0,37,0.00,,,0.00,meteohub,2013-04-30 23:24:00,
2013-04-30 19:29:00,56.7,32.0,30.36,SW,215,1.0,2.0,39,0.00,,,0.00,meteohub,2013-04-30 23:29:00,
2013-04-30 19:34:00,56.1,30.9,30.36,SW,215,0.0,3.0,38,0.00,,,0.00,meteohub,2013-04-30 23:34:00,
2013-04-30 19:39:00,55.0,30.6,30.36,SW,215,0.0,3.0,39,0.00,,,0.00,meteohub,2013-04-30 23:39:00,
2013-04-30 19:44:00,54.5,33.1,30.36,SW,215,0.0,2.0,44,0.00,,,0.00,meteohub,2013-04-30 23:44:00,
2013-04-30 19:49:00,54.0,30.7,30.37,SW,215,0.0,1.0,41,0.00,,,0.00,meteohub,2013-04-30 23:49:00,
2013-04-30 19:54:00,53.4,33.6,30.37,SW,220,0.0,1.0,47,0.00,,,0.00,meteohub,2013-04-30 23:54:00,
2013-04-30 19:59:00,52.9,30.9,30.37,SW,220,0.0,2.0,43,0.00,,,0.00,meteohub,2013-04-30 23:59:00,
2013-04-30 20:04:00,52.7,31.5,30.37,WSW,238,0.0,2.0,44,0.00,,,0.00,meteohub,2013-05-01 00:04:00,
2013-04-30 20:09:00,51.8,32.2,30.37,WSW,238,0.0,2.0,47,0.00,,,0.00,meteohub,2013-05-01 00:09:00,
2013-04-30 20:14:00,52.0,30.7,30.37,WSW,238,0.0,1.0,44,0.00,,,0.00,meteohub,2013-05-01 00:14:00,
2013-04-30 20:19:00,51.3,30.6,30.37,WSW,238,0.0,1.0,45,0.00,,,0.00,meteohub,2013-05-01 00:19:00,
2013-04-30 20:24:00,51.4,30.2,30.37,WSW,238,0.0,1.0,44,0.00,,,0.00,meteohub,2013-05-01 00:24:00,
2013-04-30 20:29:00,51.6,30.4,30.37,WSW,238,0.0,1.0,44,0.00,,,0.00,meteohub,2013-05-01 00:29:00,
2013-04-30 20:34:00,50.2,32.7,30.38,WSW,238,0.0,1.0,51,0.00,,,0.00,meteohub,2013-05-01 00:34:00,
2013-04-30 20:39:00,49.8,30.4,30.38,WSW,238,0.0,1.0,47,0.00,,,0.00,meteohub,2013-05-01 00:39:00,
2013-04-30 20:44:00,49.8,32.0,30.38,WSW,238,0.0,1.0,50,0.00,,,0.00,meteohub,2013-05-01 00:44:00,
2013-04-30 20:49:00,49.5,32.0,30.38,WSW,238,0.0,1.0,51,0.00,,,0.00,meteohub,2013-05-01 00:49:00,
2013-04-30 20:54:00,48.7,30.4,30.38,WSW,238,0.0,1.0,49,0.00,,,0.00,meteohub,2013-05-01 00:54:00,
2013-04-30 20:59:00,49.3,30.4,30.38,WSW,238,0.0,1.0,48,0.00,,,0.00,meteohub,2013-05-01 00:59:00,
2013-04-30 21:04:00,48.0,30.7,30.38,WSW,238,0.0,1.0,51,0.00,,,0.00,meteohub,2013-05-01 01:04:00,
2013-04-30 21:09:00,47.7,31.8,30.39,WSW,238,0.0,1.0,54,0.00,,,0.00,meteohub,2013-05-01 01:09:00,
2013-04-30 21:14:00,47.1,31.3,30.39,WSW,238,0.0,1.0,54,0.00,,,0.00,meteohub,2013-05-01 01:14:00,
2013-04-30 21:19:00,46.8,33.3,30.39,WSW,238,0.0,1.0,59,0.00,,,0.00,meteohub,2013-05-01 01:19:00,
2013-04-30 21:24:00,46.6,31.6,30.39,WSW,238,0.0,1.0,56,0.00,,,0.00,meteohub,2013-05-01 01:24:00,
2013-04-30 21:29:00,46.4,32.0,30.39,WSW,238,0.0,1.0,57,0.00,,,0.00,meteohub,2013-05-01 01:29:00,
2013-04-30 21:34:00,46.8,31.5,30.39,WSW,238,1.0,1.0,55,0.00,,,0.00,meteohub,2013-05-01 01:34:00,
2013-04-30 21:39:00,46.2,31.8,30.39,WSW,238,0.0,1.0,57,0.00,,,0.00,meteohub,2013-05-01 01:39:00,
2013-04-30 21:44:00,46.9,31.1,30.39,WSW,238,0.0,1.0,54,0.00,,,0.00,meteohub,2013-05-01 01:44:00,
2013-04-30 21:49:00,46.8,30.9,30.39,WSW,238,0.0,1.0,54,0.00,,,0.00,meteohub,2013-05-01 01:49:00,
2013-04-30 21:54:00,46.0,31.6,30.40,WSW,238,0.0,1.0,57,0.00,,,0.00,meteohub,2013-05-01 01:54:00,
2013-04-30 21:59:00,45.9,31.1,30.40,WSW,238,0.0,1.0,56,0.00,,,0.00,meteohub,2013-05-01 01:59:00,
2013-04-30 22:04:00,45.5,32.0,30.40,WSW,238,0.0,1.0,59,0.00,,,0.00,meteohub,2013-05-01 02:04:00,
2013-04-30 22:09:00,45.7,32.2,30.40,WSW,238,0.0,1.0,59,0.00,,,0.00,meteohub,2013-05-01 02:09:00,
2013-04-30 22:14:00,45.3,31.5,30.40,WSW,238,0.0,1.0,58,0.00,,,0.00,meteohub,2013-05-01 02:14:00,
2013-04-30 22:19:00,45.1,30.4,30.40,WSW,238,1.0,1.0,56,0.00,,,0.00,meteohub,2013-05-01 02:19:00,
2013-04-30 22:24:00,44.8,30.9,30.40,WSW,238,0.0,1.0,58,0.00,,,0.00,meteohub,2013-05-01 02:24:00,
2013-04-30 22:29:00,43.5,33.3,30.40,WSW,238,0.0,1.0,67,0.00,,,0.00,meteohub,2013-05-01 02:29:00,
2013-04-30 22:34:00,43.5,32.2,30.40,WSW,238,0.0,1.0,64,0.00,,,0.00,meteohub,2013-05-01 02:34:00,
2013-04-30 22:39:00,43.3,32.7,30.40,WSW,238,0.0,1.0,66,0.00,,,0.00,meteohub,2013-05-01 02:39:00,
2013-04-30 22:44:00,43.5,31.8,30.40,WSW,238,0.0,1.0,63,0.00,,,0.00,meteohub,2013-05-01 02:44:00,
2013-04-30 22:49:00,43.3,32.4,30.41,WSW,238,0.0,1.0,65,0.00,,,0.00,meteohub,2013-05-01 02:49:00,
2013-04-30 22:54:00,43.3,32.0,30.40,WSW,238,0.0,1.0,64,0.00,,,0.00,meteohub,2013-05-01 02:54:00,
2013-04-30 22:59:00,42.6,32.4,30.41,WSW,238,0.0,1.0,67,0.00,,,0.00,meteohub,2013-05-01 02:59:00,
2013-04-30 23:04:00,42.6,31.6,30.40,WSW,238,0.0,1.0,65,0.00,,,0.00,meteohub,2013-05-01 03:04:00,
2013-04-30 23:09:00,43.2,31.8,30.40,WSW,238,0.0,1.0,64,0.00,,,0.00,meteohub,2013-05-01 03:09:00,
2013-04-30 23:14:00,43.2,32.2,30.40,WSW,238,0.0,0.0,65,0.00,,,0.00,meteohub,2013-05-01 03:14:00,
2013-04-30 23:19:00,42.6,31.6,30.40,WSW,238,0.0,0.0,65,0.00,,,0.00,meteohub,2013-05-01 03:19:00,
2013-04-30 23:24:00,42.1,31.5,30.40,WSW,238,0.0,1.0,66,0.00,,,0.00,meteohub,2013-05-01 03:24:00,
2013-04-30 23:29:00,42.3,31.3,30.40,WSW,238,0.0,1.0,65,0.00,,,0.00,meteohub,2013-05-01 03:29:00,
2013-04-30 23:34:00,41.2,32.2,30.40,WSW,238,0.0,1.0,70,0.00,,,0.00,meteohub,2013-05-01 03:34:00,
2013-04-30 23:39:00,41.4,32.0,30.40,WSW,238,0.0,1.0,69,0.00,,,0.00,meteohub,2013-05-01 03:39:00,
2013-04-30 23:44:00,40.8,32.5,30.40,WSW,238,0.0,1.0,72,0.00,,,0.00,meteohub,2013-05-01 03:44:00,
2013-04-30 23:49:00,40.1,31.1,30.40,WSW,238,0.0,1.0,70,0.00,,,0.00,meteohub,2013-05-01 03:49:00,
2013-04-30 23:54:00,40.5,31.5,30.40,WSW,238,1.0,1.0,70,0.00,,,0.00,meteohub,2013-05-01 03:54:00,
2013-04-30 23:59:00,40.5,31.1,30.40,WSW,238,0.0,1.0,69,0.00,,,0.00,meteohub,2013-05-01 03:59:00,